sensor_id;sensor_type;location;lat;lon;timestamp;pressure;altitude;pressure_sealevel;temperature;humidity
7022;BME280;3552;42.664;23.406;2022-12-29T00:01:28;50365.53;;;-141.28;100.00
7022;BME280;3552;42.664;23.406;2022-12-29T00:03:57;50447.97;;;-141.28;100.00
7022;BME280;3552;42.664;23.406;2022-12-29T00:06:24;50506.88;;;-141.28;100.00
7022;BME280;3552;42.664;23.406;2022-12-29T00:08:51;50581.47;;;-141.28;100.00
7022;BME280;3552;42.664;23.406;2022-12-29T00:11:20;50724.75;;;-141.28;100.00
7022;BME280;3552;42.664;23.406;2022-12-29T00:13:48;50844.50;;;-141.28;100.00
7022;BME280;3552;42.664;23.406;2022-12-29T00:16:33;50824.88;;;-141.28;100.00
7022;BME280;3552;42.664;23.406;2022-12-29T00:19:03;50868.06;;;-141.28;100.00
7022;BME280;3552;42.664;23.406;2022-12-29T00:21:31;50852.34;;;-141.28;100.00
7022;BME280;3552;42.664;23.406;2022-12-29T00:24:17;50895.53;;;-141.28;100.00
7022;BME280;3552;42.664;23.406;2022-12-29T00:27:11;50844.50;;;-141.28;100.00
7022;BME280;3552;42.664;23.406;2022-12-29T00:29:56;50875.91;;;-141.28;100.00
7022;BME280;3552;42.664;23.406;2022-12-29T00:32:40;50840.56;;;-141.28;100.00
7022;BME280;3552;42.664;23.406;2022-12-29T00:35:28;50828.78;;;-141.28;100.00
7022;BME280;3552;42.664;23.406;2022-12-29T00:37:59;50897.50;;;-141.28;100.00
7022;BME280;3552;42.664;23.406;2022-12-29T00:40:45;50824.88;;;-141.28;100.00
7022;BME280;3552;42.664;23.406;2022-12-29T00:43:29;50844.50;;;-141.28;100.00
7022;BME280;3552;42.664;23.406;2022-12-29T00:46:14;50883.75;;;-141.28;100.00
7022;BME280;3552;42.664;23.406;2022-12-29T00:48:41;50946.59;;;-141.28;100.00
7022;BME280;3552;42.664;23.406;2022-12-29T00:51:27;50875.91;;;-141.28;100.00
7022;BME280;3552;42.664;23.406;2022-12-29T00:53:54;50928.91;;;-141.28;100.00
7022;BME280;3552;42.664;23.406;2022-12-29T00:56:21;50966.22;;;-141.28;100.00
7022;BME280;3552;42.664;23.406;2022-12-29T00:58:49;50993.69;;;-141.28;100.00
7022;BME280;3552;42.664;23.406;2022-12-29T01:01:16;51009.41;;;-141.28;100.00
7022;BME280;3552;42.664;23.406;2022-12-29T01:03:43;50879.84;;;-141.28;100.00
7022;BME280;3552;42.664;23.406;2022-12-29T01:06:11;50934.81;;;-141.28;100.00
7022;BME280;3552;42.664;23.406;2022-12-29T01:08:39;50895.53;;;-141.28;100.00
7022;BME280;3552;42.664;23.406;2022-12-29T01:11:08;50913.22;;;-141.28;100.00
7022;BME280;3552;42.664;23.406;2022-12-29T01:13:34;50981.91;;;-141.28;100.00
7022;BME280;3552;42.664;23.406;2022-12-29T01:16:02;51017.25;;;-141.28;100.00
7022;BME280;3552;42.664;23.406;2022-12-29T01:18:29;51007.44;;;-141.28;100.00
7022;BME280;3552;42.664;23.406;2022-12-29T01:21:00;51001.56;;;-141.28;100.00
7022;BME280;3552;42.664;23.406;2022-12-29T01:23:28;50966.22;;;-141.28;100.00
7022;BME280;3552;42.664;23.406;2022-12-29T01:25:57;51021.19;;;-141.28;100.00
7022;BME280;3552;42.664;23.406;2022-12-29T01:28:24;50909.28;;;-141.28;100.00
7022;BME280;3552;42.664;23.406;2022-12-29T01:30:50;51066.34;;;-141.28;100.00
7022;BME280;3552;42.664;23.406;2022-12-29T01:33:17;51029.03;;;-141.28;100.00
7022;BME280;3552;42.664;23.406;2022-12-29T01:35:44;50974.06;;;-141.28;100.00
7022;BME280;3552;42.664;23.406;2022-12-29T01:38:11;50966.22;;;-141.28;100.00
7022;BME280;3552;42.664;23.406;2022-12-29T01:40:47;50946.59;;;-141.28;100.00
7022;BME280;3552;42.664;23.406;2022-12-29T01:43:40;50923.03;;;-141.28;100.00
7022;BME280;3552;42.664;23.406;2022-12-29T01:46:15;50868.06;;;-141.28;100.00
7022;BME280;3552;42.664;23.406;2022-12-29T01:48:45;50978.00;;;-141.28;100.00
7022;BME280;3552;42.664;23.406;2022-12-29T01:51:13;51080.06;;;-141.28;100.00
7022;BME280;3552;42.664;23.406;2022-12-29T01:53:41;51174.31;;;-141.28;100.00
7022;BME280;3552;42.664;23.406;2022-12-29T01:56:11;51225.34;;;-141.28;100.00
7022;BME280;3552;42.664;23.406;2022-12-29T01:58:44;51252.84;;;-141.28;100.00
7022;BME280;3552;42.664;23.406;2022-12-29T02:01:13;50926.94;;;-141.28;100.00
7022;BME280;3552;42.664;23.406;2022-12-29T02:03:41;51382.44;;;-141.28;100.00
7022;BME280;3552;42.664;23.406;2022-12-29T02:06:13;51347.09;;;-141.28;100.00
7022;BME280;3552;42.664;23.406;2022-12-29T02:08:43;51319.59;;;-141.28;100.00
7022;BME280;3552;42.664;23.406;2022-12-29T02:11:12;51390.28;;;-141.28;100.00
7022;BME280;3552;42.664;23.406;2022-12-29T02:13:41;51409.91;;;-141.28;100.00
7022;BME280;3552;42.664;23.406;2022-12-29T02:16:18;51488.44;;;-141.28;100.00
7022;BME280;3552;42.664;23.406;2022-12-29T02:18:53;51384.38;;;-141.28;100.00
7022;BME280;3552;42.664;23.406;2022-12-29T02:21:51;51376.53;;;-141.28;100.00
7022;BME280;3552;42.664;23.406;2022-12-29T02:27:37;51146.81;;;-141.28;100.00
7022;BME280;3552;42.664;23.406;2022-12-29T02:30:29;51211.63;;;-141.28;100.00
7022;BME280;3552;42.664;23.406;2022-12-29T02:33:00;51217.50;;;-141.28;100.00
7022;BME280;3552;42.664;23.406;2022-12-29T02:35:32;51260.69;;;-141.28;100.00
7022;BME280;3552;42.664;23.406;2022-12-29T02:38:12;51243.03;;;-141.28;100.00
7022;BME280;3552;42.664;23.406;2022-12-29T02:40:46;51296.03;;;-141.28;100.00
7022;BME280;3552;42.664;23.406;2022-12-29T02:43:22;51354.94;;;-141.28;100.00
7022;BME280;3552;42.664;23.406;2022-12-29T02:45:58;51362.78;;;-141.28;100.00
7022;BME280;3552;42.664;23.406;2022-12-29T02:48:30;51378.50;;;-141.28;100.00
7022;BME280;3552;42.664;23.406;2022-12-29T02:51:03;51360.81;;;-141.28;100.00
7022;BME280;3552;42.664;23.406;2022-12-29T02:53:33;51351.00;;;-141.28;100.00
7022;BME280;3552;42.664;23.406;2022-12-29T02:56:18;51150.75;;;-141.28;100.00
7022;BME280;3552;42.664;23.406;2022-12-29T02:58:45;51248.91;;;-141.28;100.00
7022;BME280;3552;42.664;23.406;2022-12-29T03:01:24;51174.31;;;-141.28;100.00
7022;BME280;3552;42.664;23.406;2022-12-29T03:04:12;51013.31;;;-141.28;100.00
7022;BME280;3552;42.664;23.406;2022-12-29T03:06:52;51005.47;;;-141.28;100.00
7022;BME280;3552;42.664;23.406;2022-12-29T03:09:34;51091.84;;;-141.28;100.00
7022;BME280;3552;42.664;23.406;2022-12-29T03:12:10;51087.94;;;-141.28;100.00
7022;BME280;3552;42.664;23.406;2022-12-29T03:14:58;50948.53;;;-141.28;100.00
7022;BME280;3552;42.664;23.406;2022-12-29T03:17:51;50840.56;;;-141.28;100.00
7022;BME280;3552;42.664;23.406;2022-12-29T03:20:28;50820.94;;;-141.28;100.00
7022;BME280;3552;42.664;23.406;2022-12-29T03:23:00;50832.72;;;-141.28;100.00
7022;BME280;3552;42.664;23.406;2022-12-29T03:25:30;50954.44;;;-141.28;100.00
7022;BME280;3552;42.664;23.406;2022-12-29T03:28:01;51003.50;;;-141.28;100.00
7022;BME280;3552;42.664;23.406;2022-12-29T03:30:31;50981.91;;;-141.28;100.00
7022;BME280;3552;42.664;23.406;2022-12-29T03:33:04;50960.31;;;-141.28;100.00
7022;BME280;3552;42.664;23.406;2022-12-29T03:35:34;50915.16;;;-141.28;100.00
7022;BME280;3552;42.664;23.406;2022-12-29T03:38:07;51013.31;;;-141.28;100.00
7022;BME280;3552;42.664;23.406;2022-12-29T03:40:37;51190.03;;;-141.28;100.00
7022;BME280;3552;42.664;23.406;2022-12-29T03:43:05;51331.38;;;-141.28;100.00
7022;BME280;3552;42.664;23.406;2022-12-29T03:45:32;51445.25;;;-141.28;100.00
7022;BME280;3552;42.664;23.406;2022-12-29T03:47:59;51523.78;;;-141.28;100.00
7022;BME280;3552;42.664;23.406;2022-12-29T03:50:27;51710.31;;;-141.28;100.00
7022;BME280;3552;42.664;23.406;2022-12-29T03:52:54;51773.16;;;-141.28;100.00
7022;BME280;3552;42.664;23.406;2022-12-29T03:55:21;51857.59;;;-141.28;100.00
7022;BME280;3552;42.664;23.406;2022-12-29T03:57:48;51924.38;;;-141.28;100.00
7022;BME280;3552;42.664;23.406;2022-12-29T04:00:15;51971.50;;;-141.28;100.00
7022;BME280;3552;42.664;23.406;2022-12-29T04:02:42;52134.50;;;-141.28;100.00
7022;BME280;3552;42.664;23.406;2022-12-29T04:05:08;52301.41;;;-141.28;100.00
7022;BME280;3552;42.664;23.406;2022-12-29T04:07:38;52411.41;;;-141.28;100.00
7022;BME280;3552;42.664;23.406;2022-12-29T04:10:05;52521.38;;;-141.28;100.00
7022;BME280;3552;42.664;23.406;2022-12-29T04:12:32;52541.03;;;-141.28;100.00
7022;BME280;3552;42.664;23.406;2022-12-29T04:14:59;52666.72;;;-141.28;100.00
7022;BME280;3552;42.664;23.406;2022-12-29T04:17:26;52729.59;;;-141.28;100.00
7022;BME280;3552;42.664;23.406;2022-12-29T04:19:53;52784.59;;;-141.28;100.00
7022;BME280;3552;42.664;23.406;2022-12-29T04:22:41;52489.97;;;-141.28;100.00
7022;BME280;3552;42.664;23.406;2022-12-29T04:25:08;52723.69;;;-141.28;100.00
7022;BME280;3552;42.664;23.406;2022-12-29T04:27:35;52749.22;;;-141.28;100.00
7022;BME280;3552;42.664;23.406;2022-12-29T04:30:02;52774.75;;;-141.28;100.00
7022;BME280;3552;42.664;23.406;2022-12-29T04:32:29;52617.63;;;-141.28;100.00
7022;BME280;3552;42.664;23.406;2022-12-29T04:34:56;52867.06;;;-141.28;100.00
7022;BME280;3552;42.664;23.406;2022-12-29T04:37:23;52920.13;;;-141.28;100.00
7022;BME280;3552;42.664;23.406;2022-12-29T04:39:51;52890.66;;;-141.28;100.00
7022;BME280;3552;42.664;23.406;2022-12-29T04:42:18;52847.44;;;-141.28;100.00
7022;BME280;3552;42.664;23.406;2022-12-29T04:44:45;52855.28;;;-141.28;100.00
7022;BME280;3552;42.664;23.406;2022-12-29T04:47:12;52517.47;;;-141.28;100.00
7022;BME280;3552;42.664;23.406;2022-12-29T04:49:39;52876.91;;;-141.28;100.00
7022;BME280;3552;42.664;23.406;2022-12-29T04:52:05;52898.50;;;-141.28;100.00
7022;BME280;3552;42.664;23.406;2022-12-29T04:54:33;52869.03;;;-141.28;100.00
7022;BME280;3552;42.664;23.406;2022-12-29T04:57:01;52806.19;;;-141.28;100.00
7022;BME280;3552;42.664;23.406;2022-12-29T04:59:30;52839.56;;;-141.28;100.00
7022;BME280;3552;42.664;23.406;2022-12-29T05:01:57;52833.69;;;-141.28;100.00
7022;BME280;3552;42.664;23.406;2022-12-29T05:04:27;52776.72;;;-141.28;100.00
7022;BME280;3552;42.664;23.406;2022-12-29T05:06:55;52713.88;;;-141.28;100.00
7022;BME280;3552;42.664;23.406;2022-12-29T05:09:22;52764.94;;;-141.28;100.00
7022;BME280;3552;42.664;23.406;2022-12-29T05:11:49;52550.84;;;-141.28;100.00
7022;BME280;3552;42.664;23.406;2022-12-29T05:14:17;52643.16;;;-141.28;100.00
7022;BME280;3552;42.664;23.406;2022-12-29T05:16:44;52124.66;;;-141.28;100.00
7022;BME280;3552;42.664;23.406;2022-12-29T05:19:12;52580.31;;;-141.28;100.00
7022;BME280;3552;42.664;23.406;2022-12-29T05:21:38;52651.00;;;-141.28;100.00
7022;BME280;3552;42.664;23.406;2022-12-29T05:24:06;52611.72;;;-141.28;100.00
7022;BME280;3552;42.664;23.406;2022-12-29T05:26:32;52541.03;;;-141.28;100.00
7022;BME280;3552;42.664;23.406;2022-12-29T05:29:00;52625.47;;;-141.28;100.00
7022;BME280;3552;42.664;23.406;2022-12-29T05:31:28;52511.56;;;-141.28;100.00
7022;BME280;3552;42.664;23.406;2022-12-29T05:33:55;52482.09;;;-141.28;100.00
7022;BME280;3552;42.664;23.406;2022-12-29T05:36:24;52489.97;;;-141.28;100.00
7022;BME280;3552;42.664;23.406;2022-12-29T05:38:50;52456.56;;;-141.28;100.00
7022;BME280;3552;42.664;23.406;2022-12-29T05:41:17;52407.47;;;-141.28;100.00
7022;BME280;3552;42.664;23.406;2022-12-29T05:43:44;52411.41;;;-141.28;100.00
7022;BME280;3552;42.664;23.406;2022-12-29T05:46:11;52462.47;;;-141.28;100.00
7022;BME280;3552;42.664;23.406;2022-12-29T05:48:40;52391.75;;;-141.28;100.00
7022;BME280;3552;42.664;23.406;2022-12-29T05:51:07;52368.19;;;-141.28;100.00
7022;BME280;3552;42.664;23.406;2022-12-29T05:53:35;52531.22;;;-141.28;100.00
7022;BME280;3552;42.664;23.406;2022-12-29T05:56:02;52529.25;;;-141.28;100.00
7022;BME280;3552;42.664;23.406;2022-12-29T05:58:29;52501.75;;;-141.28;100.00
7022;BME280;3552;42.664;23.406;2022-12-29T06:00:56;52541.03;;;-141.28;100.00
7022;BME280;3552;42.664;23.406;2022-12-29T06:03:23;52515.50;;;-141.28;100.00
7022;BME280;3552;42.664;23.406;2022-12-29T06:05:52;52556.75;;;-141.28;100.00
7022;BME280;3552;42.664;23.406;2022-12-29T06:08:18;52527.28;;;-141.28;100.00
7022;BME280;3552;42.664;23.406;2022-12-29T06:10:46;52519.41;;;-141.28;100.00
7022;BME280;3552;42.664;23.406;2022-12-29T06:13:13;52533.16;;;-141.28;100.00
7022;BME280;3552;42.664;23.406;2022-12-29T06:15:40;52574.41;;;-141.28;100.00
7022;BME280;3552;42.664;23.406;2022-12-29T06:18:07;52584.25;;;-141.28;100.00
7022;BME280;3552;42.664;23.406;2022-12-29T06:20:34;52552.81;;;-141.28;100.00
7022;BME280;3552;42.664;23.406;2022-12-29T06:23:02;52757.09;;;-141.28;100.00
7022;BME280;3552;42.664;23.406;2022-12-29T06:25:29;52823.88;;;-141.28;100.00
7022;BME280;3552;42.664;23.406;2022-12-29T06:27:57;52912.25;;;-141.28;100.00
7022;BME280;3552;42.664;23.406;2022-12-29T06:30:24;53091.00;;;-141.28;100.00
7022;BME280;3552;42.664;23.406;2022-12-29T06:32:51;53181.38;;;-141.28;100.00
7022;BME280;3552;42.664;23.406;2022-12-29T06:35:20;52780.66;;;-141.28;100.00
7022;BME280;3552;42.664;23.406;2022-12-29T06:37:47;51704.44;;;-141.28;100.00
7022;BME280;3552;42.664;23.406;2022-12-29T06:40:16;50889.66;;;-141.28;100.00
7022;BME280;3552;42.664;23.406;2022-12-29T06:42:43;50271.31;;;-141.28;100.00
7022;BME280;3552;42.664;23.406;2022-12-29T06:45:10;50302.72;;;-141.28;100.00
7022;BME280;3552;42.664;23.406;2022-12-29T06:47:37;50306.66;;;-141.28;100.00
7022;BME280;3552;42.664;23.406;2022-12-29T06:50:05;50330.22;;;-141.28;100.00
7022;BME280;3552;42.664;23.406;2022-12-29T06:52:32;50573.59;;;-141.28;100.00
7022;BME280;3552;42.664;23.406;2022-12-29T06:54:59;50954.44;;;-141.28;100.00
7022;BME280;3552;42.664;23.406;2022-12-29T06:57:27;50936.75;;;-141.28;100.00
7022;BME280;3552;42.664;23.406;2022-12-29T06:59:54;50964.25;;;-141.28;100.00
7022;BME280;3552;42.664;23.406;2022-12-29T07:02:22;50928.91;;;-141.28;100.00
7022;BME280;3552;42.664;23.406;2022-12-29T07:07:22;51633.75;;;-141.28;100.00
7022;BME280;3552;42.664;23.406;2022-12-29T07:09:49;51378.50;;;-141.28;100.00
7022;BME280;3552;42.664;23.406;2022-12-29T07:12:17;51205.72;;;-141.28;100.00
7022;BME280;3552;42.664;23.406;2022-12-29T07:14:48;50966.22;;;-141.28;100.00
7022;BME280;3552;42.664;23.406;2022-12-29T07:17:15;50752.22;;;-141.28;100.00
7022;BME280;3552;42.664;23.406;2022-12-29T07:19:42;50630.53;;;-141.28;100.00
7022;BME280;3552;42.664;23.406;2022-12-29T07:22:10;50514.72;;;-141.28;100.00
7022;BME280;3552;42.664;23.406;2022-12-29T07:24:37;50306.66;;;-141.28;100.00
7022;BME280;3552;42.664;23.406;2022-12-29T07:27:05;50220.28;;;-141.28;100.00
7022;BME280;3552;42.664;23.406;2022-12-29T07:29:33;50092.72;;;-141.28;100.00
7022;BME280;3552;42.664;23.406;2022-12-29T07:32:01;50016.19;;;-141.28;100.00
7022;BME280;3552;42.664;23.406;2022-12-29T07:34:28;49961.22;;;-141.28;100.00
7022;BME280;3552;42.664;23.406;2022-12-29T07:36:55;49937.69;;;-141.28;100.00
7022;BME280;3552;42.664;23.406;2022-12-29T07:39:23;49894.50;;;-141.28;100.00
7022;BME280;3552;42.664;23.406;2022-12-29T07:41:53;49990.66;;;-141.28;100.00
7022;BME280;3552;42.664;23.406;2022-12-29T07:44:20;50330.22;;;-141.28;100.00
7022;BME280;3552;42.664;23.406;2022-12-29T07:46:47;50491.16;;;-141.28;100.00
7022;BME280;3552;42.664;23.406;2022-12-29T07:49:16;50671.75;;;-141.28;100.00
7022;BME280;3552;42.664;23.406;2022-12-29T07:51:43;50387.13;;;-141.28;100.00
7022;BME280;3552;42.664;23.406;2022-12-29T07:54:10;50263.47;;;-141.28;100.00
7022;BME280;3552;42.664;23.406;2022-12-29T07:56:38;50232.06;;;-141.28;100.00
7022;BME280;3552;42.664;23.406;2022-12-29T07:59:05;50204.59;;;-141.28;100.00
7022;BME280;3552;42.664;23.406;2022-12-29T08:01:43;50171.22;;;-141.28;100.00
7022;BME280;3552;42.664;23.406;2022-12-29T08:04:10;50118.25;;;-141.28;100.00
7022;BME280;3552;42.664;23.406;2022-12-29T08:06:39;50059.34;;;-141.28;100.00
7022;BME280;3552;42.664;23.406;2022-12-29T08:09:06;50029.91;;;-141.28;100.00
7022;BME280;3552;42.664;23.406;2022-12-29T08:11:34;50045.63;;;-141.28;100.00
7022;BME280;3552;42.664;23.406;2022-12-29T08:14:02;50055.44;;;-141.28;100.00
7022;BME280;3552;42.664;23.406;2022-12-29T08:16:29;50037.78;;;-141.28;100.00
7022;BME280;3552;42.664;23.406;2022-12-29T08:18:56;50086.84;;;-141.28;100.00
7022;BME280;3552;42.664;23.406;2022-12-29T08:21:24;50055.44;;;-141.28;100.00
7022;BME280;3552;42.664;23.406;2022-12-29T08:23:53;50047.59;;;-141.28;100.00
7022;BME280;3552;42.664;23.406;2022-12-29T08:26:20;50031.88;;;-141.28;100.00
7022;BME280;3552;42.664;23.406;2022-12-29T08:28:47;50059.34;;;-141.28;100.00
7022;BME280;3552;42.664;23.406;2022-12-29T08:31:14;50047.59;;;-141.28;100.00
7022;BME280;3552;42.664;23.406;2022-12-29T08:33:42;50055.44;;;-141.28;100.00
7022;BME280;3552;42.664;23.406;2022-12-29T08:36:09;50059.34;;;-141.28;100.00
7022;BME280;3552;42.664;23.406;2022-12-29T08:38:36;50051.50;;;-141.28;100.00
7022;BME280;3552;42.664;23.406;2022-12-29T08:41:05;50008.34;;;-141.28;100.00
7022;BME280;3552;42.664;23.406;2022-12-29T08:43:32;49992.63;;;-141.28;100.00
7022;BME280;3552;42.664;23.406;2022-12-29T08:45:59;50022.06;;;-141.28;100.00
7022;BME280;3552;42.664;23.406;2022-12-29T08:48:26;49992.63;;;-141.28;100.00
7022;BME280;3552;42.664;23.406;2022-12-29T08:50:53;50000.47;;;-141.28;100.00
7022;BME280;3552;42.664;23.406;2022-12-29T08:53:21;49998.50;;;-141.28;100.00
7022;BME280;3552;42.664;23.406;2022-12-29T08:56:05;49992.63;;;-141.28;100.00
7022;BME280;3552;42.664;23.406;2022-12-29T08:58:32;50004.41;;;-141.28;100.00
7022;BME280;3552;42.664;23.406;2022-12-29T09:00:59;50024.03;;;-141.28;100.00
7022;BME280;3552;42.664;23.406;2022-12-29T09:03:27;50053.47;;;-141.28;100.00
7022;BME280;3552;42.664;23.406;2022-12-29T09:05:54;50108.44;;;-141.28;100.00
7022;BME280;3552;42.664;23.406;2022-12-29T09:08:22;50088.78;;;-141.28;100.00
7022;BME280;3552;42.664;23.406;2022-12-29T09:10:50;50106.47;;;-141.28;100.00
7022;BME280;3552;42.664;23.406;2022-12-29T09:13:18;50147.69;;;-141.28;100.00
7022;BME280;3552;42.664;23.406;2022-12-29T09:15:46;50147.69;;;-141.28;100.00
7022;BME280;3552;42.664;23.406;2022-12-29T09:18:13;50145.72;;;-141.28;100.00
7022;BME280;3552;42.664;23.406;2022-12-29T09:20:40;50088.78;;;-141.28;100.00
7022;BME280;3552;42.664;23.406;2022-12-29T09:23:07;50108.44;;;-141.28;100.00
7022;BME280;3552;42.664;23.406;2022-12-29T09:25:34;50114.31;;;-141.28;100.00
7022;BME280;3552;42.664;23.406;2022-12-29T09:28:02;50130.00;;;-141.28;100.00
7022;BME280;3552;42.664;23.406;2022-12-29T09:30:34;50102.53;;;-141.28;100.00
7022;BME280;3552;42.664;23.406;2022-12-29T09:33:01;50075.06;;;-141.28;100.00
7022;BME280;3552;42.664;23.406;2022-12-29T09:35:29;50108.44;;;-141.28;100.00
7022;BME280;3552;42.664;23.406;2022-12-29T09:37:56;50141.78;;;-141.28;100.00
7022;BME280;3552;42.664;23.406;2022-12-29T09:40:27;50167.31;;;-141.28;100.00
7022;BME280;3552;42.664;23.406;2022-12-29T09:43:11;50222.25;;;-141.28;100.00
7022;BME280;3552;42.664;23.406;2022-12-29T09:46:06;50251.69;;;-141.28;100.00
7022;BME280;3552;42.664;23.406;2022-12-29T09:48:46;50255.63;;;-141.28;100.00
7022;BME280;3552;42.664;23.406;2022-12-29T09:51:17;50257.59;;;-141.28;100.00
7022;BME280;3552;42.664;23.406;2022-12-29T09:53:52;50192.81;;;-141.28;100.00
7022;BME280;3552;42.664;23.406;2022-12-29T09:56:21;50230.13;;;-141.28;100.00
7022;BME280;3552;42.664;23.406;2022-12-29T09:58:54;50220.28;;;-141.28;100.00
7022;BME280;3552;42.664;23.406;2022-12-29T10:01:28;50236.00;;;-141.28;100.00
7022;BME280;3552;42.664;23.406;2022-12-29T10:03:59;50220.28;;;-141.28;100.00
7022;BME280;3552;42.664;23.406;2022-12-29T10:06:36;50251.69;;;-141.28;100.00
7022;BME280;3552;42.664;23.406;2022-12-29T10:09:13;50212.44;;;-141.28;100.00
7022;BME280;3552;42.664;23.406;2022-12-29T10:11:57;50210.47;;;-141.28;100.00
7022;BME280;3552;42.664;23.406;2022-12-29T10:14:44;50220.28;;;-141.28;100.00
7022;BME280;3552;42.664;23.406;2022-12-29T10:17:24;50355.72;;;-141.28;100.00
7022;BME280;3552;42.664;23.406;2022-12-29T10:20:06;50306.66;;;-141.28;100.00
7022;BME280;3552;42.664;23.406;2022-12-29T10:22:47;50389.09;;;-141.28;100.00
7022;BME280;3552;42.664;23.406;2022-12-29T10:25:19;50393.03;;;-141.28;100.00
7022;BME280;3552;42.664;23.406;2022-12-29T10:27:48;50420.50;;;-141.28;100.00
7022;BME280;3552;42.664;23.406;2022-12-29T10:30:16;50410.69;;;-141.28;100.00
7022;BME280;3552;42.664;23.406;2022-12-29T10:32:49;50446.03;;;-141.28;100.00
7022;BME280;3552;42.664;23.406;2022-12-29T10:35:20;50532.38;;;-141.28;100.00
7022;BME280;3552;42.664;23.406;2022-12-29T10:37:52;50738.50;;;-141.28;100.00
7022;BME280;3552;42.664;23.406;2022-12-29T10:40:26;51472.75;;;-141.28;100.00
7022;BME280;3552;42.664;23.406;2022-12-29T10:42:57;51985.25;;;-141.28;100.00
7022;BME280;3552;42.664;23.406;2022-12-29T10:45:29;52101.09;;;-141.28;100.00
7022;BME280;3552;42.664;23.406;2022-12-29T10:48:01;52018.63;;;-141.28;100.00
7022;BME280;3552;42.664;23.406;2022-12-29T10:50:30;51904.72;;;-141.28;100.00
7022;BME280;3552;42.664;23.406;2022-12-29T10:52:59;51861.53;;;-141.28;100.00
7022;BME280;3552;42.664;23.406;2022-12-29T10:55:31;51716.22;;;-141.28;100.00
7022;BME280;3552;42.664;23.406;2022-12-29T10:58:02;51606.25;;;-141.28;100.00
7022;BME280;3552;42.664;23.406;2022-12-29T11:00:32;51447.22;;;-141.28;100.00
7022;BME280;3552;42.664;23.406;2022-12-29T11:06:00;50640.34;;;-141.28;100.00
7022;BME280;3552;42.664;23.406;2022-12-29T11:08:33;50542.19;;;-141.28;100.00
7022;BME280;3552;42.664;23.406;2022-12-29T11:11:04;50422.47;;;-141.28;100.00
7022;BME280;3552;42.664;23.406;2022-12-29T11:13:34;50722.78;;;-141.28;100.00
7022;BME280;3552;42.664;23.406;2022-12-29T11:16:01;50620.72;;;-141.28;100.00
7022;BME280;3552;42.664;23.406;2022-12-29T11:18:33;50569.69;;;-141.28;100.00
7022;BME280;3552;42.664;23.406;2022-12-29T11:21:06;50387.13;;;-141.28;100.00
7022;BME280;3552;42.664;23.406;2022-12-29T11:23:36;50451.91;;;-141.28;100.00
7022;BME280;3552;42.664;23.406;2022-12-29T11:26:12;50184.97;;;-141.28;100.00
7022;BME280;3552;42.664;23.406;2022-12-29T11:28:41;50071.13;;;-141.28;100.00
7022;BME280;3552;42.664;23.406;2022-12-29T11:31:09;49890.56;;;-141.28;100.00
7022;BME280;3552;42.664;23.406;2022-12-29T11:33:37;49401.94;;;-141.28;100.00
7022;BME280;3552;42.664;23.406;2022-12-29T11:36:10;49376.44;;;-141.28;100.00
7022;BME280;3552;42.664;23.406;2022-12-29T11:38:40;49313.66;;;-141.28;100.00
7022;BME280;3552;42.664;23.406;2022-12-29T11:41:12;49307.75;;;-141.28;100.00
7022;BME280;3552;42.664;23.406;2022-12-29T11:43:42;49248.88;;;-141.28;100.00
7022;BME280;3552;42.664;23.406;2022-12-29T11:46:14;49213.56;;;-141.28;100.00
7022;BME280;3552;42.664;23.406;2022-12-29T11:48:43;49213.56;;;-141.28;100.00
7022;BME280;3552;42.664;23.406;2022-12-29T11:51:21;49215.53;;;-141.28;100.00
7022;BME280;3552;42.664;23.406;2022-12-29T11:53:51;49235.16;;;-141.28;100.00
7022;BME280;3552;42.664;23.406;2022-12-29T11:56:21;49227.31;;;-141.28;100.00
7022;BME280;3552;42.664;23.406;2022-12-29T11:58:50;49227.31;;;-141.28;100.00
7022;BME280;3552;42.664;23.406;2022-12-29T12:01:22;49195.91;;;-141.28;100.00
7022;BME280;3552;42.664;23.406;2022-12-29T12:04:00;49188.06;;;-141.28;98.34
7022;BME280;3552;42.664;23.406;2022-12-29T12:06:31;49201.81;;;-141.28;94.79
7022;BME280;3552;42.664;23.406;2022-12-29T12:09:03;49221.41;;;-141.28;96.08
